createdAt,value
2022-11-12T11:46:15.528Z,985.68
2022-11-12T11:47:15.547Z,985.65
2022-11-12T11:48:15.588Z,985.65
2022-11-12T11:49:15.644Z,985.66
2022-11-12T11:50:15.684Z,985.66
2022-11-12T11:51:15.761Z,985.64
2022-11-12T11:52:15.779Z,985.61
2022-11-12T11:53:15.844Z,985.57
2022-11-12T11:54:15.867Z,985.58
2022-11-12T11:55:15.911Z,985.56
2022-11-12T11:56:15.987Z,985.60
2022-11-12T11:57:16.010Z,985.55
2022-11-12T11:58:16.053Z,985.55
2022-11-12T11:59:16.103Z,985.51
2022-11-12T12:00:16.150Z,985.53
2022-11-12T12:01:16.243Z,985.45
2022-11-12T12:02:16.248Z,985.43
2022-11-12T12:03:16.342Z,985.46
2022-11-12T12:04:16.338Z,985.49
2022-11-12T12:05:16.398Z,985.44
2022-11-12T12:06:16.469Z,985.42
2022-11-12T12:07:16.588Z,985.44
2022-11-12T12:08:16.534Z,985.42
2022-11-12T12:09:16.577Z,985.40
2022-11-12T12:10:16.620Z,985.43
2022-11-12T12:11:16.698Z,985.40
2022-11-12T12:12:16.721Z,985.42
2022-11-12T12:13:16.769Z,985.41
2022-11-12T12:14:16.816Z,985.38
2022-11-12T12:15:16.865Z,985.37
2022-11-12T12:16:16.940Z,985.37
2022-11-12T12:17:16.956Z,985.34
2022-11-12T12:18:17.008Z,985.31
2022-11-12T12:19:17.054Z,985.33
2022-11-12T12:20:18.094Z,985.31
2022-11-12T12:21:17.175Z,985.31
2022-11-12T12:22:17.204Z,985.32
2022-11-12T12:23:17.287Z,985.27
2022-11-12T12:24:17.294Z,985.27
2022-11-12T12:25:17.338Z,985.22
2022-11-12T12:26:17.391Z,985.24
2022-11-12T12:27:18.091Z,985.20
2022-11-12T12:28:17.511Z,985.18
2022-11-12T12:29:17.553Z,985.20
2022-11-12T12:30:17.594Z,985.19
2022-11-12T12:31:17.629Z,985.15
2022-11-12T12:32:23.056Z,985.16
2022-11-12T12:33:17.730Z,985.13
2022-11-12T12:34:17.807Z,985.08
2022-11-12T12:35:17.817Z,985.08
2022-11-12T12:36:17.869Z,985.04
2022-11-12T12:37:17.931Z,985.04
2022-11-12T12:38:17.967Z,985.07
2022-11-12T12:39:18.045Z,985.06
2022-11-12T12:40:18.088Z,985.14
2022-11-12T12:41:18.111Z,985.15
2022-11-12T12:42:18.163Z,985.14
2022-11-12T12:43:18.211Z,985.12
2022-11-12T12:44:18.257Z,985.12
2022-11-12T12:45:18.331Z,985.05
2022-11-12T12:46:18.409Z,985.00
2022-11-12T12:47:18.425Z,985.01
2022-11-12T12:48:18.447Z,985.00
2022-11-12T12:49:18.497Z,984.97
2022-11-12T12:50:18.544Z,984.95
2022-11-12T12:51:18.592Z,984.92
2022-11-12T12:52:18.660Z,984.89
2022-11-12T12:53:18.686Z,984.87
2022-11-12T12:54:18.759Z,984.86
2022-11-12T12:55:18.783Z,984.86
2022-11-12T12:56:18.838Z,984.83
2022-11-12T12:57:18.910Z,984.87
2022-11-12T12:58:18.931Z,984.87
2022-11-12T12:59:18.979Z,984.85
2022-11-12T13:00:19.021Z,984.85
2022-11-12T13:01:19.143Z,984.86
2022-11-12T13:02:19.150Z,984.82
2022-11-12T13:03:19.196Z,984.84
2022-11-12T13:04:19.211Z,984.85
2022-11-12T13:05:19.263Z,984.83
2022-11-12T13:06:19.309Z,984.81
2022-11-12T13:07:19.404Z,984.82
2022-11-12T13:08:19.427Z,984.79
2022-11-12T13:09:19.455Z,984.77
2022-11-12T13:10:19.499Z,984.76
2022-11-12T13:11:19.566Z,984.76
2022-11-12T13:12:19.593Z,984.75
2022-11-12T13:13:19.642Z,984.76
2022-11-12T13:14:19.711Z,984.77
2022-11-12T13:15:19.731Z,984.72
2022-11-12T13:16:19.778Z,984.73
2022-11-12T13:17:19.829Z,984.74
2022-11-12T13:18:19.874Z,984.73
2022-11-12T13:19:19.952Z,984.71
2022-11-12T13:20:19.997Z,984.74
2022-11-12T13:21:20.028Z,984.78
2022-11-12T13:22:20.060Z,984.73
2022-11-12T13:23:20.116Z,984.77
2022-11-12T13:24:20.159Z,984.71
2022-11-12T13:25:20.227Z,984.70
2022-11-12T13:26:22.126Z,984.71
2022-11-12T13:27:20.301Z,984.69
2022-11-12T13:28:20.363Z,984.66
2022-11-12T13:29:21.165Z,984.64
